createdAt,value
2023-05-08T00:01:59.314Z,8.65
2023-05-08T00:04:26.390Z,8.64
2023-05-08T00:06:53.402Z,8.62
2023-05-08T00:09:20.827Z,8.60
2023-05-08T00:11:47.839Z,8.58
2023-05-08T00:14:14.818Z,8.57
2023-05-08T00:16:41.898Z,8.55
2023-05-08T00:19:08.881Z,8.54
2023-05-08T00:21:35.945Z,8.54
2023-05-08T00:24:02.936Z,8.51
2023-05-08T00:26:29.909Z,8.48
2023-05-08T00:28:56.900Z,8.47
2023-05-08T00:31:24.316Z,8.46
2023-05-08T00:33:51.553Z,8.45
2023-05-08T00:36:18.653Z,8.44
2023-05-08T00:38:46.548Z,8.43
2023-05-08T00:41:13.965Z,8.42
2023-05-08T00:43:41.050Z,8.40
2023-05-08T00:46:10.081Z,8.40
2023-05-08T00:48:37.252Z,8.39
2023-05-08T00:51:06.258Z,8.37
2023-05-08T00:53:33.991Z,8.34
2023-05-08T00:56:01.045Z,8.31
2023-05-08T00:58:28.033Z,8.30
2023-05-08T01:00:56.177Z,8.26
2023-05-08T01:03:24.069Z,8.23
2023-05-08T01:05:51.430Z,8.20
2023-05-08T01:08:18.430Z,8.17
2023-05-08T01:11:07.541Z,8.17
2023-05-08T01:14:04.056Z,8.14
2023-05-08T01:16:42.540Z,8.13
2023-05-08T01:19:33.093Z,8.12
2023-05-08T01:22:28.525Z,8.11
2023-05-08T01:25:26.896Z,8.10
2023-05-08T01:28:12.509Z,8.09
2023-05-08T01:30:53.284Z,8.07
2023-05-08T01:33:24.537Z,8.06
2023-05-08T01:35:55.823Z,8.06
2023-05-08T01:39:04.260Z,8.05
2023-05-08T01:41:31.888Z,8.06
2023-05-08T01:44:25.232Z,8.05
2023-05-08T01:46:52.375Z,8.05
2023-05-08T01:49:25.712Z,8.04
2023-05-08T01:52:04.541Z,8.04
2023-05-08T01:54:36.695Z,8.04
2023-05-08T01:57:05.871Z,8.04
2023-05-08T01:59:32.929Z,8.04
2023-05-08T02:01:59.982Z,8.02
2023-05-08T02:04:27.155Z,8.02
2023-05-08T02:06:54.265Z,8.01
2023-05-08T02:09:21.583Z,8.01
2023-05-08T02:11:48.678Z,7.98
2023-05-08T02:14:20.193Z,7.97
2023-05-08T02:16:48.432Z,7.96
2023-05-08T02:19:15.440Z,7.96
2023-05-08T02:21:42.473Z,7.96
2023-05-08T02:26:30.066Z,7.98
2023-05-08T02:28:57.212Z,7.95
2023-05-08T02:31:24.525Z,7.96
2023-05-08T02:33:51.568Z,7.95
2023-05-08T02:36:19.280Z,7.94
2023-05-08T02:38:48.552Z,7.94
2023-05-08T02:41:15.640Z,7.93
2023-05-08T02:43:43.453Z,7.92
2023-05-08T02:46:21.471Z,7.91
2023-05-08T02:49:15.008Z,7.91
2023-05-08T02:51:59.997Z,7.91
2023-05-08T02:54:44.584Z,7.91
2023-05-08T02:57:37.582Z,7.90
2023-05-08T03:00:08.661Z,7.90
2023-05-08T03:02:39.652Z,7.90
2023-05-08T03:05:29.232Z,7.91
2023-05-08T03:07:57.707Z,7.90
2023-05-08T03:10:28.493Z,7.91
2023-05-08T03:12:56.417Z,7.91
2023-05-08T03:15:28.653Z,7.92
2023-05-08T03:17:57.669Z,7.93
2023-05-08T03:20:25.257Z,7.94
2023-05-08T03:22:53.683Z,7.94
2023-05-08T03:25:20.828Z,7.95
2023-05-08T03:27:47.907Z,7.95
2023-05-08T03:30:15.248Z,7.96
2023-05-08T03:32:46.083Z,7.97
2023-05-08T03:35:14.049Z,7.99
2023-05-08T03:37:41.863Z,8.02
2023-05-08T03:40:09.940Z,8.04
2023-05-08T03:42:37.039Z,8.06
2023-05-08T03:45:05.233Z,8.09
2023-05-08T03:47:32.372Z,8.13
2023-05-08T03:49:59.549Z,8.18
2023-05-08T03:52:26.766Z,8.21
2023-05-08T03:54:54.612Z,8.25
2023-05-08T03:57:22.166Z,8.31
2023-05-08T04:00:01.982Z,8.34
2023-05-08T04:02:40.796Z,8.35
2023-05-08T04:05:32.240Z,8.39
2023-05-08T04:08:12.128Z,8.44
2023-05-08T04:10:44.565Z,8.45
2023-05-08T04:13:18.176Z,8.45
2023-05-08T04:15:52.801Z,8.47
2023-05-08T04:18:25.246Z,8.50
2023-05-08T04:20:52.287Z,8.56
2023-05-08T04:23:20.700Z,8.58
2023-05-08T04:25:47.833Z,8.59
2023-05-08T04:28:16.078Z,8.67
2023-05-08T04:30:43.282Z,8.80
2023-05-08T04:33:10.427Z,8.98
2023-05-08T04:35:38.150Z,9.30
2023-05-08T04:38:05.261Z,9.80
2023-05-08T04:40:32.418Z,10.21
2023-05-08T04:42:59.702Z,10.32
2023-05-08T04:45:27.058Z,10.40
2023-05-08T04:47:54.217Z,10.33
2023-05-08T04:50:21.572Z,10.34
2023-05-08T04:52:48.948Z,10.54
2023-05-08T04:55:16.304Z,10.81
2023-05-08T04:57:44.764Z,11.30
2023-05-08T05:00:12.751Z,11.92
2023-05-08T05:02:40.787Z,12.35
2023-05-08T05:05:08.280Z,12.43
2023-05-08T05:07:35.464Z,12.38
2023-05-08T05:10:02.896Z,12.26
2023-05-08T05:12:30.998Z,12.16
2023-05-08T05:14:58.414Z,11.94
2023-05-08T05:17:26.524Z,11.63
2023-05-08T05:19:53.623Z,11.33
2023-05-08T05:22:21.214Z,11.13
2023-05-08T05:24:48.262Z,10.92
2023-05-08T05:27:15.358Z,10.93
2023-05-08T05:29:42.363Z,11.05
2023-05-08T05:32:11.694Z,11.00
2023-05-08T05:34:39.080Z,11.04
2023-05-08T05:37:07.079Z,11.30
2023-05-08T05:39:34.281Z,11.64
2023-05-08T05:42:01.391Z,11.88
2023-05-08T05:44:29.156Z,12.03
2023-05-08T05:46:57.011Z,12.22
2023-05-08T05:49:24.561Z,12.41
2023-05-08T05:51:51.692Z,12.44
2023-05-08T05:54:18.979Z,12.20
2023-05-08T05:56:46.093Z,11.95
2023-05-08T05:59:13.183Z,11.79
2023-05-08T06:01:40.802Z,11.77
2023-05-08T06:04:07.928Z,11.86
2023-05-08T06:06:34.981Z,11.94
2023-05-08T06:09:02.027Z,11.92
2023-05-08T06:11:29.020Z,11.82
2023-05-08T06:13:56.083Z,11.83
2023-05-08T06:16:25.203Z,11.88
2023-05-08T06:18:52.376Z,11.80
2023-05-08T06:21:19.372Z,11.77
2023-05-08T06:23:46.341Z,11.91
2023-05-08T06:26:13.319Z,11.91
2023-05-08T06:28:40.332Z,11.77
2023-05-08T06:31:07.380Z,11.72
2023-05-08T06:33:34.460Z,11.82
2023-05-08T06:36:01.445Z,12.03
2023-05-08T06:38:28.479Z,12.21
2023-05-08T06:40:55.797Z,12.44
2023-05-08T06:43:22.963Z,12.71
2023-05-08T06:45:50.035Z,12.79
2023-05-08T06:48:17.164Z,12.86
2023-05-08T06:50:44.226Z,13.06
2023-05-08T06:53:11.289Z,13.29
2023-05-08T06:55:38.300Z,13.27
2023-05-08T06:58:05.357Z,13.21
2023-05-08T07:00:32.408Z,13.03
2023-05-08T07:02:59.498Z,12.84
2023-05-08T07:05:26.808Z,12.65
2023-05-08T07:07:56.751Z,12.50
2023-05-08T07:10:23.888Z,12.50
2023-05-08T07:12:50.963Z,12.51
2023-05-08T07:15:26.085Z,12.55
2023-05-08T07:17:54.346Z,12.66
2023-05-08T07:20:21.963Z,12.71
2023-05-08T07:22:49.181Z,12.72
2023-05-08T07:25:16.408Z,12.71
2023-05-08T07:27:43.520Z,12.71
2023-05-08T07:30:10.912Z,12.81
2023-05-08T07:32:39.606Z,13.07
2023-05-08T07:35:10.964Z,13.27
2023-05-08T07:37:39.623Z,13.32
2023-05-08T07:40:07.490Z,13.37
2023-05-08T07:42:41.734Z,13.47
2023-05-08T07:45:09.963Z,13.50
2023-05-08T07:47:37.102Z,13.44
2023-05-08T07:50:04.523Z,13.39
2023-05-08T07:52:32.116Z,13.45
2023-05-08T07:54:59.233Z,13.57
2023-05-08T07:57:26.211Z,13.68
2023-05-08T07:59:53.182Z,13.72
2023-05-08T08:02:20.286Z,13.78
2023-05-08T08:04:47.342Z,13.97
2023-05-08T08:07:14.377Z,14.11
2023-05-08T08:09:41.350Z,14.19
2023-05-08T08:12:08.415Z,14.20
2023-05-08T08:14:35.509Z,14.27
2023-05-08T08:17:02.628Z,14.30
2023-05-08T08:19:29.796Z,14.36
2023-05-08T08:21:56.866Z,14.43
2023-05-08T08:24:24.021Z,14.55
2023-05-08T08:26:51.126Z,14.77
2023-05-08T08:29:18.239Z,14.95
2023-05-08T08:31:45.320Z,14.96
2023-05-08T08:34:12.616Z,15.00
2023-05-08T08:36:39.987Z,15.14
2023-05-08T08:39:07.793Z,15.25
2023-05-08T08:41:36.687Z,15.42
2023-05-08T08:44:03.808Z,15.43
2023-05-08T08:46:31.273Z,15.48
2023-05-08T08:48:58.332Z,15.56
2023-05-08T08:51:32.083Z,15.56
2023-05-08T08:54:05.037Z,15.61
2023-05-08T08:56:33.248Z,15.56
2023-05-08T08:59:00.786Z,15.66
2023-05-08T09:01:29.542Z,15.86
2023-05-08T09:04:00.114Z,15.90
2023-05-08T09:06:27.906Z,15.86
2023-05-08T09:08:56.928Z,15.92
2023-05-08T09:11:24.859Z,15.99
2023-05-08T09:13:51.900Z,15.96
2023-05-08T09:16:18.990Z,15.94
2023-05-08T09:18:46.214Z,16.06
2023-05-08T09:21:13.211Z,16.21
2023-05-08T09:24:02.979Z,16.32
2023-05-08T09:26:37.336Z,16.39
2023-05-08T09:29:22.488Z,16.40
2023-05-08T09:31:53.713Z,16.32
2023-05-08T09:34:28.485Z,16.27
2023-05-08T09:36:56.470Z,16.23
2023-05-08T09:39:25.008Z,16.15
2023-05-08T09:42:02.477Z,16.01
2023-05-08T09:44:29.625Z,16.18
2023-05-08T09:47:16.495Z,16.42
2023-05-08T09:50:03.449Z,16.51
2023-05-08T09:52:31.498Z,16.41
2023-05-08T09:55:02.528Z,16.30
2023-05-08T09:57:30.561Z,16.39
2023-05-08T10:00:16.235Z,16.59
2023-05-08T10:03:00.308Z,16.91
2023-05-08T10:05:30.324Z,16.94
2023-05-08T10:07:58.576Z,16.75
2023-05-08T10:10:31.082Z,16.63
2023-05-08T10:12:58.860Z,16.84
2023-05-08T10:15:28.871Z,17.19
2023-05-08T10:18:06.999Z,17.44
2023-05-08T10:20:37.147Z,17.57
2023-05-08T10:23:04.265Z,17.42
2023-05-08T10:25:33.435Z,17.23
2023-05-08T10:28:17.050Z,17.30
2023-05-08T10:30:47.703Z,17.61
2023-05-08T10:33:15.759Z,17.76
2023-05-08T10:35:42.846Z,17.63
2023-05-08T10:38:10.189Z,17.24
2023-05-08T10:40:38.158Z,16.83
2023-05-08T10:43:07.528Z,16.63
2023-05-08T10:45:34.637Z,16.38
2023-05-08T10:48:13.975Z,16.00
2023-05-08T10:51:18.050Z,15.69
2023-05-08T10:53:56.090Z,15.54
2023-05-08T10:56:27.593Z,15.77
2023-05-08T10:58:58.609Z,16.22
2023-05-08T11:01:26.307Z,16.46
2023-05-08T11:03:55.884Z,16.41
2023-05-08T11:06:43.758Z,16.40
2023-05-08T11:09:22.123Z,16.71
2023-05-08T11:12:08.946Z,17.11
2023-05-08T11:14:38.126Z,17.55
2023-05-08T11:17:05.570Z,17.68
2023-05-08T11:19:32.806Z,17.57
2023-05-08T11:22:26.555Z,17.24
2023-05-08T11:25:00.681Z,16.83
2023-05-08T11:27:50.099Z,16.78
2023-05-08T11:30:32.605Z,16.70
2023-05-08T11:33:06.436Z,16.35
2023-05-08T11:35:56.555Z,16.08
2023-05-08T11:38:29.824Z,15.98
2023-05-08T11:40:58.513Z,16.00
2023-05-08T11:43:38.214Z,16.00
2023-05-08T11:46:05.205Z,15.90
2023-05-08T11:48:33.069Z,15.90
2023-05-08T11:51:00.573Z,16.21
2023-05-08T11:53:28.370Z,16.67
2023-05-08T11:55:55.526Z,16.96
2023-05-08T11:58:22.773Z,17.32
2023-05-08T12:00:50.436Z,17.64
2023-05-08T12:03:18.249Z,17.77
2023-05-08T12:05:45.930Z,17.77
2023-05-08T12:08:13.950Z,17.39
2023-05-08T12:10:41.894Z,16.96
2023-05-08T12:13:26.692Z,16.59
2023-05-08T12:15:55.796Z,16.22
2023-05-08T12:18:23.802Z,15.91
2023-05-08T12:20:58.369Z,15.68
2023-05-08T12:23:26.309Z,15.50
2023-05-08T12:25:56.154Z,15.36
2023-05-08T12:28:23.229Z,15.31
2023-05-08T12:30:50.353Z,15.28
2023-05-08T12:33:17.592Z,15.28
2023-05-08T12:35:44.636Z,15.20
2023-05-08T12:38:12.304Z,15.11
2023-05-08T12:40:43.933Z,15.07
2023-05-08T12:43:11.380Z,15.04
2023-05-08T12:45:40.096Z,14.99
2023-05-08T12:48:11.366Z,15.02
2023-05-08T12:50:40.460Z,15.25
2023-05-08T12:53:11.840Z,15.64
2023-05-08T12:55:40.006Z,16.07
2023-05-08T12:58:16.471Z,16.39
2023-05-08T13:00:44.956Z,16.45
2023-05-08T13:03:27.722Z,16.35
2023-05-08T13:05:56.671Z,16.04
2023-05-08T13:08:31.505Z,15.68
2023-05-08T13:10:58.622Z,15.39
2023-05-08T13:13:27.298Z,15.14
2023-05-08T13:15:55.290Z,14.94
2023-05-08T13:18:25.051Z,14.78
2023-05-08T13:20:52.060Z,14.63
2023-05-08T13:23:19.108Z,14.55
2023-05-08T13:25:46.212Z,14.56
2023-05-08T13:28:13.331Z,14.59
2023-05-08T13:30:40.418Z,14.62
2023-05-08T13:33:07.977Z,14.66
2023-05-08T13:35:35.207Z,14.65
2023-05-08T13:38:02.440Z,14.67
2023-05-08T13:40:30.094Z,14.70
2023-05-08T13:42:57.214Z,14.77
2023-05-08T13:45:24.281Z,14.93
2023-05-08T13:47:51.490Z,15.06
2023-05-08T13:50:22.432Z,15.08
2023-05-08T13:52:51.006Z,15.00
2023-05-08T13:55:22.200Z,14.96
2023-05-08T13:57:49.288Z,14.91
2023-05-08T14:00:16.928Z,14.84
2023-05-08T14:02:44.074Z,14.76
2023-05-08T14:05:11.544Z,14.71
2023-05-08T14:07:38.838Z,14.68
2023-05-08T14:10:06.169Z,14.65
2023-05-08T14:12:36.584Z,14.61
2023-05-08T14:15:07.642Z,14.58
2023-05-08T14:17:34.768Z,14.53
2023-05-08T14:20:01.860Z,14.46
2023-05-08T14:22:28.879Z,14.41
2023-05-08T14:24:56.028Z,14.36
2023-05-08T14:27:23.060Z,14.36
2023-05-08T14:29:50.200Z,14.34
2023-05-08T14:32:17.266Z,14.32
2023-05-08T14:34:44.779Z,14.31
2023-05-08T14:37:13.274Z,14.31
2023-05-08T14:39:40.443Z,14.35
2023-05-08T14:44:06.576Z,14.76
2023-05-08T14:46:33.672Z,14.96
2023-05-08T14:49:00.723Z,15.08
2023-05-08T14:51:28.480Z,15.17
2023-05-08T14:53:55.650Z,15.21
2023-05-08T14:56:24.985Z,15.28
2023-05-08T14:58:52.208Z,15.38
2023-05-08T15:01:19.432Z,15.52
2023-05-08T15:03:53.472Z,15.57
2023-05-08T15:06:22.283Z,15.52
2023-05-08T15:08:49.446Z,15.41
2023-05-08T15:11:16.568Z,15.28
2023-05-08T15:13:43.611Z,15.13
2023-05-08T15:16:10.757Z,14.94
2023-05-08T15:18:38.739Z,14.72
2023-05-08T15:21:05.995Z,14.54
2023-05-08T15:23:33.057Z,14.41
2023-05-08T15:26:00.556Z,14.27
2023-05-08T15:28:27.534Z,14.14
2023-05-08T15:30:54.613Z,14.04
2023-05-08T15:33:21.628Z,13.97
2023-05-08T15:35:48.835Z,13.94
2023-05-08T15:38:15.827Z,13.91
2023-05-08T15:40:42.949Z,13.87
2023-05-08T15:43:09.991Z,13.83
2023-05-08T15:45:37.053Z,13.79
2023-05-08T15:48:04.318Z,13.71
2023-05-08T15:50:31.322Z,13.63
2023-05-08T15:52:58.359Z,13.57
2023-05-08T15:55:25.429Z,13.52
2023-05-08T15:57:52.422Z,13.48
2023-05-08T16:00:20.208Z,13.45
2023-05-08T16:02:48.689Z,13.43
2023-05-08T16:05:15.793Z,13.42
2023-05-08T16:07:44.879Z,13.41
2023-05-08T16:10:12.652Z,13.42
2023-05-08T16:12:39.792Z,13.42
2023-05-08T16:15:07.253Z,13.40
2023-05-08T16:17:34.407Z,13.36
2023-05-08T16:20:02.106Z,13.28
2023-05-08T16:22:29.428Z,13.22
2023-05-08T16:24:56.581Z,13.18
2023-05-08T16:27:23.596Z,13.16
2023-05-08T16:29:50.637Z,13.14
2023-05-08T16:32:17.668Z,13.12
2023-05-08T16:34:44.750Z,13.10
2023-05-08T16:37:11.729Z,13.06
2023-05-08T16:39:38.915Z,13.02
2023-05-08T16:42:07.279Z,12.97
2023-05-08T16:44:34.868Z,12.92
2023-05-08T16:47:02.259Z,12.86
2023-05-08T16:49:29.522Z,12.81
2023-05-08T16:51:56.607Z,12.77
2023-05-08T16:54:23.746Z,12.72
2023-05-08T16:56:50.821Z,12.67
2023-05-08T16:59:19.041Z,12.61
2023-05-08T17:01:46.100Z,12.54
2023-05-08T17:04:13.121Z,12.48
2023-05-08T17:06:42.947Z,12.42
2023-05-08T17:09:09.963Z,12.35
2023-05-08T17:11:37.059Z,12.29
2023-05-08T17:14:04.031Z,12.19
2023-05-08T17:16:31.107Z,12.12
2023-05-08T17:18:59.848Z,12.01
2023-05-08T17:21:27.614Z,11.90
2023-05-08T17:23:54.650Z,11.82
2023-05-08T17:26:23.095Z,11.74
2023-05-08T17:28:50.188Z,11.64
2023-05-08T17:31:17.344Z,11.53
2023-05-08T17:33:44.416Z,11.42
2023-05-08T17:36:11.602Z,11.30
2023-05-08T17:38:43.884Z,11.18
2023-05-08T17:41:10.959Z,11.07
2023-05-08T17:43:38.085Z,10.97
2023-05-08T17:46:05.260Z,10.86
2023-05-08T17:48:33.335Z,10.75
2023-05-08T17:51:03.193Z,10.68
2023-05-08T17:53:33.537Z,10.60
2023-05-08T17:56:01.311Z,10.52
2023-05-08T17:58:28.356Z,10.41
2023-05-08T18:00:56.314Z,10.32
2023-05-08T18:03:23.617Z,10.23
2023-05-08T18:05:53.076Z,10.15
2023-05-08T18:08:20.140Z,10.07
2023-05-08T18:10:47.350Z,9.98
2023-05-08T18:13:14.442Z,9.89
2023-05-08T18:15:41.802Z,9.82
2023-05-08T18:18:08.980Z,9.75
2023-05-08T18:20:36.102Z,9.67
2023-05-08T18:23:03.156Z,9.59
2023-05-08T18:25:30.225Z,9.50
2023-05-08T18:27:59.076Z,9.42
2023-05-08T18:30:26.245Z,9.32
2023-05-08T18:32:53.644Z,9.21
2023-05-08T18:35:21.944Z,9.12
2023-05-08T18:37:49.188Z,9.01
2023-05-08T18:40:16.363Z,8.89
2023-05-08T18:42:43.589Z,8.81
2023-05-08T18:45:11.563Z,8.73
2023-05-08T18:47:38.829Z,8.62
2023-05-08T18:50:06.447Z,8.55
2023-05-08T18:52:34.255Z,8.49
2023-05-08T18:55:01.265Z,8.43
2023-05-08T18:57:28.294Z,8.36
2023-05-08T18:59:55.486Z,8.29
2023-05-08T19:02:24.930Z,8.24
2023-05-08T19:04:52.142Z,8.21
2023-05-08T19:07:19.246Z,8.20
2023-05-08T19:09:46.292Z,8.20
2023-05-08T19:12:13.321Z,8.21
2023-05-08T19:14:40.497Z,8.21
2023-05-08T19:17:07.613Z,8.21
2023-05-08T19:19:34.797Z,8.20
2023-05-08T19:22:01.858Z,8.18
2023-05-08T19:24:30.094Z,8.18
2023-05-08T19:27:00.055Z,8.17
2023-05-08T19:29:27.066Z,8.15
2023-05-08T19:31:56.579Z,8.14
2023-05-08T19:34:24.337Z,8.11
2023-05-08T19:36:51.484Z,8.07
2023-05-08T19:39:18.534Z,8.02
2023-05-08T19:41:45.585Z,7.99
2023-05-08T19:44:12.630Z,7.95
2023-05-08T19:46:40.007Z,7.92
2023-05-08T19:49:07.131Z,7.88
2023-05-08T19:51:34.785Z,7.83
2023-05-08T19:54:01.861Z,7.81
2023-05-08T19:56:28.912Z,7.79
2023-05-08T19:58:55.997Z,7.77
2023-05-08T20:01:23.114Z,7.74
2023-05-08T20:03:50.414Z,7.72
2023-05-08T20:06:17.504Z,7.69
2023-05-08T20:08:44.614Z,7.68
2023-05-08T20:11:12.083Z,7.67
2023-05-08T20:13:39.582Z,7.65
2023-05-08T20:16:06.833Z,7.65
2023-05-08T20:18:34.863Z,7.64
2023-05-08T20:21:01.955Z,7.62
2023-05-08T20:23:29.116Z,7.61
2023-05-08T20:25:56.140Z,7.60
2023-05-08T20:28:26.255Z,7.60
2023-05-08T20:30:53.353Z,7.60
2023-05-08T20:33:20.899Z,7.62
2023-05-08T20:35:48.018Z,7.65
2023-05-08T20:38:16.260Z,7.68
2023-05-08T20:40:43.361Z,7.75
2023-05-08T20:43:11.435Z,7.80
2023-05-08T20:45:38.802Z,7.84
2023-05-08T20:48:06.283Z,7.89
2023-05-08T20:50:33.338Z,7.93
2023-05-08T20:53:00.304Z,7.98
2023-05-08T20:55:27.448Z,8.04
2023-05-08T20:57:54.614Z,8.10
2023-05-08T21:00:21.658Z,8.17
2023-05-08T21:02:48.708Z,8.21
2023-05-08T21:05:15.960Z,8.22
2023-05-08T21:07:43.286Z,8.24
2023-05-08T21:10:10.422Z,8.27
2023-05-08T21:12:37.510Z,8.30
2023-05-08T21:15:06.157Z,8.34
2023-05-08T21:17:33.162Z,8.34
2023-05-08T21:20:00.263Z,8.29
2023-05-08T21:22:27.306Z,8.23
2023-05-08T21:24:54.363Z,8.20
2023-05-08T21:27:21.609Z,8.19
2023-05-08T21:29:48.933Z,8.20
2023-05-08T21:32:15.924Z,8.24
2023-05-08T21:34:42.887Z,8.27
2023-05-08T21:37:11.336Z,8.29
2023-05-08T21:39:38.397Z,8.31
2023-05-08T21:42:05.540Z,8.33
2023-05-08T21:44:32.496Z,8.36
2023-05-08T21:46:59.475Z,8.36
2023-05-08T21:49:26.519Z,8.35
2023-05-08T21:51:53.734Z,8.34
2023-05-08T21:54:23.362Z,8.33
2023-05-08T21:56:50.657Z,8.33
2023-05-08T21:59:17.798Z,8.35
2023-05-08T22:01:44.876Z,8.37
2023-05-08T22:04:11.906Z,8.38
2023-05-08T22:06:39.046Z,8.37
2023-05-08T22:09:06.112Z,8.35
2023-05-08T22:11:33.157Z,8.33
2023-05-08T22:14:00.204Z,8.32
2023-05-08T22:16:27.195Z,8.32
2023-05-08T22:18:54.235Z,8.34
2023-05-08T22:21:21.222Z,8.33
2023-05-08T22:23:48.177Z,8.33
2023-05-08T22:26:15.162Z,8.34
2023-05-08T22:28:42.212Z,8.33
2023-05-08T22:31:09.331Z,8.31
2023-05-08T22:33:37.051Z,8.32
2023-05-08T22:36:04.497Z,8.31
2023-05-08T22:38:31.488Z,8.31
2023-05-08T22:41:00.302Z,8.30
2023-05-08T22:43:27.771Z,8.30
2023-05-08T22:45:54.871Z,8.28
2023-05-08T22:48:21.958Z,8.27
2023-05-08T22:50:49.731Z,8.27
2023-05-08T22:53:16.831Z,8.27
2023-05-08T22:55:43.837Z,8.27
2023-05-08T22:58:10.832Z,8.27
2023-05-08T23:00:37.851Z,8.26
2023-05-08T23:03:05.069Z,8.26
2023-05-08T23:05:32.128Z,8.25
2023-05-08T23:07:59.189Z,8.25
2023-05-08T23:10:26.231Z,8.24
2023-05-08T23:12:53.295Z,8.25
2023-05-08T23:15:21.527Z,8.25
2023-05-08T23:17:48.642Z,8.24
2023-05-08T23:20:15.669Z,8.24
2023-05-08T23:22:42.661Z,8.24
2023-05-08T23:25:10.956Z,8.23
2023-05-08T23:27:38.325Z,8.21
2023-05-08T23:30:06.524Z,8.21
2023-05-08T23:32:33.643Z,8.19
2023-05-08T23:35:00.816Z,8.16
2023-05-08T23:37:27.806Z,8.14
2023-05-08T23:39:55.297Z,8.13
2023-05-08T23:42:22.282Z,8.10
2023-05-08T23:44:49.308Z,8.08
2023-05-08T23:47:16.410Z,8.06
2023-05-08T23:49:43.474Z,8.04
2023-05-08T23:52:10.569Z,8.01
2023-05-08T23:54:37.592Z,7.99
2023-05-08T23:57:04.836Z,7.97
2023-05-08T23:59:31.870Z,7.95
